Aérodrome :
LOGIN :

S'inscrire | Disclaimer

   EN    FR    IT 

 










Légende :    VFR   VFR Marginal   IFR   IFR Intensif   IFR Très Intensif
Visi : 
Plafond : 
>= 8 km
>= 3000ft
5 à 8 km
1000 à 3000 ft
1500m à 5 km
500 à 1000 ft
800 à 1500m
200 à 500 ft
< 800m
< 200 ft
Symboles :   Orages  Brouillard  Fortes neiges  Fortes précipitations  Vent > 20 kt
SIGMETs :   Divers  Orages  Givrage  Turbulence  Onde Orograph.  Cendres Volcan.






- Altitude de l'aérodrome : 580 ft


LFOA - Avord

DERNIER METAR :
  • 012230Z AUTO 00000KT CAVOK 14/10 Q1022

METARs EXPIRÉS :
  • 011630Z AUTO VRB03KT CAVOK 22/08 Q1021
  • 012200Z AUTO 10003KT CAVOK 14/10 Q1022
  • 012130Z AUTO 06001KT CAVOK 16/10 Q1022
  • 012100Z AUTO 06003KT CAVOK 16/10 Q1022
  • 012030Z AUTO 02004KT CAVOK 17/10 Q1022
  • 010530Z AUTO 24004KT 9999 FEW047 11/11 Q1020
  • 012000Z AUTO 01003KT CAVOK 18/09 Q1022

Prévision TAF périmée.



MET'MAP, la Météo Aéronautique d'un coup d'oeil ! - Copyright ORBIFLY Décembre 2007 - Disclaimer

ORBIFLY MET'MAP TEAM :

Programmation & Développement : Alexandra Zaïnal
Sur une idée originale de : Baudouin d'Aumeries
Soutien technique & logistique : Manuel Goepfert
Assistance : Marc-Olivier Méhu




SOURCES & CREDITS :

   NOAA